Time;durP1;ratioP1;P1;durP2;ratioP2;P2;SDS_P1;SDS_P2;PMS_P1;PMS_P2;Temp;Humidity;BMP_temperature;BMP_pressure;BME280_temperature;BME280_humidity;BME280_pressure;Samples;Min_cycle;Max_cycle;Signal;HPM_P1;HPM_P2
2023/06/09 00:03:58;;;;;;;46.60;33.85;;;;;;;26.11;37.19;100505.69;21008834;28;20039;-58
2023/06/09 00:14:00;;;;;;;43.63;33.03;;;;;;;26.12;36.95;100518.59;21008000;28;20106;-59
2023/06/09 00:24:02;;;;;;;45.00;33.75;;;;;;;26.11;37.00;100528.13;21005622;28;20090;-57
2023/06/09 00:34:03;;;;;;;41.58;31.50;;;;;;;26.11;36.90;100530.94;21006033;28;20106;-57
2023/06/09 00:44:05;;;;;;;39.60;30.02;;;;;;;26.10;37.08;100540.50;21005109;28;20086;-57
2023/06/09 00:54:07;;;;;;;37.33;30.65;;;;;;;26.07;36.99;100552.38;21003157;28;20541;-58
2023/06/09 01:04:14;;;;;;;38.85;29.35;;;;;;;26.02;36.87;100552.53;21004272;28;20488;-58
2023/06/09 01:14:34;;;;;;;36.78;30.30;;;;;;;26.07;37.17;100578.47;21002667;28;20039;-57
2023/06/09 01:24:59;;;;;;;35.47;27.23;;;;;;;26.04;37.05;100595.91;21003137;28;20106;-58
2023/06/09 01:35:01;;;;;;;33.13;27.40;;;;;;;26.10;36.87;100610.63;21002489;28;20089;-56
2023/06/09 01:45:03;;;;;;;30.92;26.92;;;;;;;26.10;37.15;100616.22;21001595;28;20055;-57
2023/06/09 01:55:15;;;;;;;32.72;25.92;;;;;;;26.10;36.87;100619.03;21000581;28;20032;-57
2023/06/09 02:05:17;;;;;;;29.77;25.80;;;;;;;26.10;36.83;100627.44;20999450;28;20040;-57
2023/06/09 02:15:19;;;;;;;31.65;25.27;;;;;;;26.11;37.10;100643.09;20999290;28;20032;-57
2023/06/09 02:25:20;;;;;;;30.17;25.02;;;;;;;26.10;36.66;100647.06;20997066;28;20049;-57
2023/06/09 02:35:22;;;;;;;29.92;25.52;;;;;;;26.10;36.92;100638.66;20997046;28;20051;-58
2023/06/09 02:45:23;;;;;;;26.42;23.63;;;;;;;26.07;36.83;100644.91;20996799;28;20040;-58
2023/06/09 02:55:25;;;;;;;27.25;24.30;;;;;;;26.10;36.69;100644.25;20996416;28;20044;-59
2023/06/09 03:05:26;;;;;;;27.23;23.30;;;;;;;26.10;36.58;100641.47;20995898;28;20546;-58
2023/06/09 03:15:28;;;;;;;27.92;23.17;;;;;;;26.10;36.56;100645.09;20994902;28;20033;-57
2023/06/09 03:25:33;;;;;;;27.40;23.50;;;;;;;26.00;36.58;100636.97;20994435;28;20041;-57
2023/06/09 03:35:34;;;;;;;28.83;23.67;;;;;;;26.10;36.33;100644.25;20993780;28;20117;-57
2023/06/09 03:45:36;;;;;;;27.10;23.23;;;;;;;26.08;36.36;100655.00;20994267;28;20540;-58
2023/06/09 03:55:38;;;;;;;25.92;23.20;;;;;;;26.09;36.27;100660.25;20993944;28;20054;-58
2023/06/09 04:05:39;;;;;;;26.33;23.35;;;;;;;26.10;36.12;100661.09;20993120;28;20040;-56
2023/06/09 04:15:41;;;;;;;26.00;23.02;;;;;;;26.06;36.28;100641.28;20992930;28;20545;-58
2023/06/09 04:25:42;;;;;;;26.25;21.85;;;;;;;26.08;36.17;100640.97;20991842;28;20036;-57
2023/06/09 04:35:46;;;;;;;25.77;21.77;;;;;;;26.09;36.25;100634.22;20990812;28;20029;-57
2023/06/09 04:45:48;;;;;;;25.88;21.52;;;;;;;26.07;36.00;100625.28;20998609;28;20395;-58
2023/06/09 04:55:52;;;;;;;24.38;21.17;;;;;;;26.09;36.16;100628.59;21006259;28;20391;-58
2023/06/09 05:05:53;;;;;;;24.83;21.00;;;;;;;26.05;35.85;100613.56;21005518;28;20040;-58
2023/06/09 05:15:57;;;;;;;23.80;20.88;;;;;;;26.07;36.04;100628.06;21003859;28;20048;-59
2023/06/09 05:25:59;;;;;;;23.35;20.50;;;;;;;26.02;35.81;100617.00;21003621;28;20075;-55
2023/06/09 05:36:01;;;;;;;24.83;21.35;;;;;;;26.07;35.86;100625.28;21004393;28;20475;-59
2023/06/09 05:46:03;;;;;;;24.13;19.83;;;;;;;26.06;35.82;100623.63;21002631;28;20063;-58
2023/06/09 05:56:05;;;;;;;23.85;19.88;;;;;;;26.01;35.79;100604.16;21001963;28;20426;-56
2023/06/09 06:06:07;;;;;;;24.70;20.20;;;;;;;26.03;35.71;100613.91;21000237;28;20541;-58
2023/06/09 06:16:08;;;;;;;24.13;20.33;;;;;;;26.05;35.87;100605.16;20999547;28;20041;-57
2023/06/09 06:26:10;;;;;;;24.27;19.65;;;;;;;26.04;35.73;100590.31;20998115;28;20048;-57
2023/06/09 06:36:12;;;;;;;26.42;20.88;;;;;;;26.02;35.86;100589.78;20998002;28;20036;-56
2023/06/09 06:46:15;;;;;;;21.77;18.92;;;;;;;26.04;35.60;100595.91;20996625;28;20044;-58
2023/06/09 06:56:16;;;;;;;23.38;19.65;;;;;;;26.03;35.48;100602.69;20996426;28;20044;-56
2023/06/09 07:06:21;;;;;;;21.88;18.83;;;;;;;26.01;35.97;100590.94;20994860;28;20037;-57
2023/06/09 07:16:23;;;;;;;23.55;19.52;;;;;;;26.01;35.60;100590.13;20995336;28;20049;-57
2023/06/09 07:26:25;;;;;;;22.02;19.55;;;;;;;26.02;35.74;100583.38;20994390;28;20048;-56
2023/06/09 07:36:29;;;;;;;24.05;19.85;;;;;;;26.00;35.57;100578.09;20992160;28;20032;-58
2023/06/09 07:46:30;;;;;;;21.52;18.38;;;;;;;26.00;35.76;100580.06;20993888;28;20052;-57
2023/06/09 07:56:32;;;;;;;21.58;18.40;;;;;;;26.00;35.82;100592.09;20990466;28;20036;-57
2023/06/09 08:06:34;;;;;;;22.70;18.75;;;;;;;26.00;35.55;100594.09;20991350;28;20036;-57
2023/06/09 08:16:35;;;;;;;20.67;17.95;;;;;;;26.00;35.46;100602.50;20992236;28;20044;-57
2023/06/09 08:26:37;;;;;;;18.88;16.48;;;;;;;25.99;35.46;100606.47;21005934;28;20048;-59
2023/06/09 08:36:39;;;;;;;19.98;17.42;;;;;;;25.97;35.81;100609.56;21005379;28;20098;-58
2023/06/09 08:46:40;;;;;;;20.98;17.10;;;;;;;25.96;35.39;100626.72;21004198;28;20044;-59
2023/06/09 08:56:42;;;;;;;20.73;16.52;;;;;;;25.97;35.42;100636.78;21003908;28;20513;-58
2023/06/09 09:06:43;;;;;;;21.00;16.08;;;;;;;25.94;35.80;100643.06;21003500;28;20419;-57
2023/06/09 09:16:45;;;;;;;19.15;15.20;;;;;;;25.95;35.68;100644.69;21004232;28;20094;-60
2023/06/09 09:26:47;;;;;;;18.67;15.70;;;;;;;26.00;35.59;100664.19;21003339;28;20048;-60
2023/06/09 09:36:54;;;;;;;19.55;16.10;;;;;;;25.98;35.68;100670.13;21003029;28;20471;-60
2023/06/09 09:46:58;;;;;;;19.48;15.77;;;;;;;25.96;35.70;100668.78;20999812;28;20048;-57
2023/06/09 09:57:01;;;;;;;18.45;15.48;;;;;;;25.88;35.66;100655.53;20998498;28;20025;-57
2023/06/09 10:07:02;;;;;;;20.45;16.08;;;;;;;25.93;35.61;100661.00;20998978;28;20407;-58
2023/06/09 10:17:04;;;;;;;19.30;15.65;;;;;;;25.91;35.58;100660.50;20997941;28;20096;-58
2023/06/09 10:27:06;;;;;;;20.13;15.82;;;;;;;25.90;35.52;100670.91;20996471;28;20041;-59
2023/06/09 10:37:07;;;;;;;17.52;14.02;;;;;;;25.91;35.64;100674.53;20997025;28;20048;-58
2023/06/09 10:47:09;;;;;;;18.40;14.88;;;;;;;25.90;35.98;100687.72;20993805;28;20069;-56
2023/06/09 10:57:39;;;;;;;18.50;14.90;;;;;;;25.84;35.75;100695.44;20994051;28;20063;-59
2023/06/09 11:07:47;;;;;;;17.13;14.63;;;;;;;25.88;35.91;100691.97;20993832;28;20109;-56
2023/06/09 11:17:51;;;;;;;19.63;14.13;;;;;;;25.87;35.72;100698.75;20994556;28;20059;-58
2023/06/09 11:27:56;;;;;;;16.23;14.38;;;;;;;25.88;35.86;100694.78;20994032;28;20044;-58
2023/06/09 11:38:03;;;;;;;17.30;14.27;;;;;;;25.88;35.77;100717.19;20995654;28;20036;-58
2023/06/09 11:48:08;;;;;;;17.60;13.90;;;;;;;25.88;35.57;100723.63;20994168;28;20482;-58
2023/06/09 11:58:12;;;;;;;15.38;13.32;;;;;;;25.87;35.94;100730.41;21007182;28;20040;-58
2023/06/09 12:08:13;;;;;;;16.10;13.57;;;;;;;25.86;35.73;100737.16;21008678;28;20048;-57
2023/06/09 12:18:15;;;;;;;16.45;12.82;;;;;;;25.85;35.95;100735.50;21007400;28;20480;-58
2023/06/09 12:28:23;;;;;;;17.98;13.73;;;;;;;25.85;36.09;100760.75;21005549;28;20044;-58
2023/06/09 12:38:27;;;;;;;14.32;12.55;;;;;;;25.80;36.04;100756.09;21006394;28;20098;-59
2023/06/09 12:48:28;;;;;;;16.50;12.93;;;;;;;25.82;35.99;100753.78;21004763;28;20044;-56
2023/06/09 12:58:29;;;;;;;15.70;13.25;;;;;;;25.80;35.99;100758.06;21004476;28;20041;-57
2023/06/09 13:08:31;;;;;;;15.55;13.10;;;;;;;25.84;35.72;100773.94;21003137;28;20040;-56
2023/06/09 13:18:32;;;;;;;13.13;11.18;;;;;;;25.84;36.03;100765.53;21003317;28;20122;-58
2023/06/09 13:28:37;;;;;;;15.73;12.30;;;;;;;25.85;35.89;100769.97;21001883;28;20118;-58
2023/06/09 13:38:39;;;;;;;13.75;10.88;;;;;;;25.87;36.02;100766.00;21001666;28;20094;-58
2023/06/09 13:48:43;;;;;;;12.15;9.90;;;;;;;25.82;36.12;100742.56;21000269;28;20052;-58
2023/06/09 13:58:45;;;;;;;13.27;10.15;;;;;;;25.85;35.99;100750.34;20999881;28;20036;-56
2023/06/09 14:08:46;;;;;;;12.82;10.05;;;;;;;25.83;35.90;100749.81;20999036;28;20048;-56
2023/06/09 14:18:47;;;;;;;13.05;9.63;;;;;;;25.81;36.19;100734.50;20997981;28;20066;-58
2023/06/09 14:28:49;;;;;;;13.10;9.27;;;;;;;25.84;35.82;100723.47;20997005;28;20071;-58
2023/06/09 14:38:50;;;;;;;9.85;8.38;;;;;;;25.87;36.08;100732.38;20997590;28;20102;-58
2023/06/09 14:48:54;;;;;;;10.85;9.23;;;;;;;25.88;36.02;100731.22;20994081;28;20048;-57
2023/06/09 14:59:03;;;;;;;10.45;8.80;;;;;;;25.76;36.01;100704.63;20993337;28;20045;-56
2023/06/09 15:09:04;;;;;;;8.85;7.70;;;;;;;25.85;35.83;100719.50;20992638;28;20044;-57
2023/06/09 15:19:05;;;;;;;10.00;7.68;;;;;;;25.87;36.11;100726.78;20992782;28;20468;-57
2023/06/09 15:29:07;;;;;;;7.75;6.95;;;;;;;25.79;36.00;100703.94;20992095;28;20117;-57
2023/06/09 15:39:08;;;;;;;8.93;7.60;;;;;;;25.91;35.91;100719.38;20992526;28;20438;-58
2023/06/09 15:49:10;;;;;;;7.57;6.32;;;;;;;25.91;35.88;100711.78;20991314;28;20044;-59
2023/06/09 15:59:11;;;;;;;10.77;6.78;;;;;;;25.92;35.89;100716.25;20992071;28;20086;-58
2023/06/09 16:09:12;;;;;;;6.10;5.40;;;;;;;25.87;35.95;100698.75;20991685;28;20044;-58
2023/06/09 16:19:14;;;;;;;7.60;6.13;;;;;;;25.93;35.87;100705.84;20991615;28;20041;-58
2023/06/09 16:29:19;;;;;;;6.40;5.80;;;;;;;25.95;36.17;100683.94;20991007;28;20041;-58
2023/06/09 16:39:21;;;;;;;7.10;5.70;;;;;;;25.94;35.98;100705.56;20994543;28;20357;-59
2023/06/09 16:49:23;;;;;;;5.95;5.35;;;;;;;25.90;36.30;100689.69;21005129;28;20040;-56
2023/06/09 16:59:24;;;;;;;6.03;5.05;;;;;;;25.97;36.17;100687.25;21003177;28;20053;-57
2023/06/09 17:09:26;;;;;;;5.65;5.03;;;;;;;25.99;36.42;100679.34;21003511;28;20396;-58
2023/06/09 17:19:28;;;;;;;6.40;5.07;;;;;;;25.99;36.18;100665.34;21002751;28;20475;-57
2023/06/09 17:29:29;;;;;;;5.38;4.88;;;;;;;26.00;36.23;100652.97;21001714;28;20044;-58
2023/06/09 17:39:31;;;;;;;5.65;4.97;;;;;;;25.99;36.07;100632.50;21001036;28;20033;-59
2023/06/09 17:49:35;;;;;;;5.80;5.20;;;;;;;26.02;36.23;100628.22;20999978;28;20106;-58
2023/06/09 17:59:37;;;;;;;4.93;4.43;;;;;;;26.00;36.11;100596.91;20999302;28;20043;-58
2023/06/09 18:09:38;;;;;;;4.70;4.30;;;;;;;26.03;36.24;100585.03;20998036;28;20384;-57
2023/06/09 18:19:39;;;;;;;4.60;4.18;;;;;;;26.03;36.43;100580.25;20997121;28;20102;-62
2023/06/09 18:29:41;;;;;;;4.28;3.88;;;;;;;26.04;36.56;100569.88;20996456;28;20044;-57
2023/06/09 18:39:42;;;;;;;4.78;4.00;;;;;;;26.05;36.47;100557.50;20995226;28;20055;-59
2023/06/09 18:49:44;;;;;;;4.30;3.90;;;;;;;26.04;36.42;100547.44;20994577;28;20048;-57
2023/06/09 18:59:46;;;;;;;3.95;3.55;;;;;;;26.06;36.72;100545.13;20993699;28;20040;-57
2023/06/09 19:09:48;;;;;;;4.75;3.90;;;;;;;26.02;36.43;100524.47;20993384;28;20044;-58
2023/06/09 19:19:49;;;;;;;4.20;3.50;;;;;;;26.04;36.88;100502.56;20991684;28;20105;-56
2023/06/09 19:29:50;;;;;;;4.07;3.67;;;;;;;26.08;36.95;100523.19;20992222;28;20129;-57
2023/06/09 19:39:53;;;;;;;4.20;3.70;;;;;;;26.08;36.76;100506.38;20990708;28;20055;-58
2023/06/09 19:50:02;;;;;;;5.03;3.75;;;;;;;26.03;36.71;100487.72;20991390;28;20066;-55
2023/06/09 20:00:05;;;;;;;4.85;3.78;;;;;;;26.07;36.48;100485.94;20991483;28;20442;-58
2023/06/09 20:10:12;;;;;;;4.00;3.60;;;;;;;26.07;36.53;100491.53;20990615;28;20110;-58
2023/06/09 20:20:13;;;;;;;4.97;3.43;;;;;;;25.99;36.68;100463.47;21005922;28;20036;-57
2023/06/09 20:30:15;;;;;;;3.92;3.17;;;;;;;26.12;36.77;100493.34;21005458;28;20098;-58
2023/06/09 20:40:16;;;;;;;3.40;3.08;;;;;;;26.12;36.93;100476.53;21005800;28;20480;-56
2023/06/09 20:50:18;;;;;;;3.40;3.00;;;;;;;26.12;37.12;100482.13;21004341;28;20040;-58
2023/06/09 21:00:19;;;;;;;4.25;3.20;;;;;;;25.98;37.28;100464.59;21004930;28;20036;-58
2023/06/09 21:10:24;;;;;;;3.10;2.88;;;;;;;26.11;37.01;100497.28;21002948;28;20172;-57
2023/06/09 21:20:27;;;;;;;3.58;2.95;;;;;;;26.03;37.22;100472.88;21002008;28;20040;-59
2023/06/09 21:30:30;;;;;;;4.00;2.80;;;;;;;26.12;37.40;100496.16;21000891;28;20049;-57
2023/06/09 21:40:31;;;;;;;3.10;2.80;;;;;;;26.12;37.46;100481.31;21001973;28;20074;-58
2023/06/09 21:50:32;;;;;;;3.08;2.60;;;;;;;26.14;37.57;100484.59;21001043;28;20028;-58
2023/06/09 22:00:37;;;;;;;3.58;2.92;;;;;;;26.10;37.47;100481.63;20999812;28;20033;-58
2023/06/09 22:10:38;;;;;;;3.25;2.95;;;;;;;26.14;37.70;100479.00;20998426;28;20373;-58
2023/06/09 22:20:40;;;;;;;3.25;2.72;;;;;;;26.14;37.77;100491.03;20997012;28;20037;-58
2023/06/09 22:30:42;;;;;;;3.60;3.10;;;;;;;26.07;37.68;100483.13;20995720;28;20101;-61
2023/06/09 22:40:46;;;;;;;4.22;3.60;;;;;;;26.03;37.79;100495.31;20994658;28;20048;-60
2023/06/09 22:50:48;;;;;;;3.58;3.20;;;;;;;26.15;38.07;100525.50;20994711;28;20032;-57
2023/06/09 23:00:49;;;;;;;3.65;3.33;;;;;;;26.13;37.80;100534.25;20994531;28;20036;-58
2023/06/09 23:10:51;;;;;;;3.88;3.45;;;;;;;26.14;37.93;100547.13;20993762;28;20036;-57
2023/06/09 23:20:55;;;;;;;4.35;3.67;;;;;;;26.15;38.13;100547.94;20993713;28;20063;-58
2023/06/09 23:30:57;;;;;;;4.70;4.25;;;;;;;26.16;37.94;100553.25;20992505;28;20044;-58
2023/06/09 23:40:58;;;;;;;6.00;4.68;;;;;;;26.12;37.96;100555.06;20992826;28;20040;-59
2023/06/09 23:51:00;;;;;;;5.65;4.97;;;;;;;26.15;38.22;100574.00;21001796;28;20051;-64
